createdAt,value
2019-01-04T00:05:32.661Z,4.00
2019-01-04T00:11:36.872Z,4.00
2019-01-04T00:17:41.228Z,3.90
2019-01-04T00:23:45.482Z,4.00
2019-01-04T00:29:49.884Z,4.00
2019-01-04T00:35:54.172Z,4.00
2019-01-04T00:41:58.384Z,3.80
2019-01-04T00:48:02.593Z,3.70
2019-01-04T00:54:06.980Z,3.60
2019-01-04T01:01:10.070Z,3.40
2019-01-04T01:07:52.667Z,3.40
2019-01-04T01:14:36.516Z,3.50
2019-01-04T01:21:16.375Z,3.50
2019-01-04T01:28:10.495Z,3.50
2019-01-04T01:35:02.131Z,3.50
2019-01-04T01:41:42.887Z,3.70
2019-01-04T01:48:08.561Z,3.90
2019-01-04T01:54:12.759Z,4.00
2019-01-04T02:00:17.015Z,4.10
2019-01-04T02:06:21.213Z,4.00
2019-01-04T02:12:25.408Z,4.10
2019-01-04T02:18:29.719Z,4.10
2019-01-04T02:24:33.905Z,4.10
2019-01-04T02:30:38.343Z,4.10
2019-01-04T02:36:42.521Z,4.20
2019-01-04T02:42:46.824Z,4.10
2019-01-04T02:48:51.071Z,4.20
2019-01-04T02:54:55.330Z,4.20
2019-01-04T03:00:59.622Z,4.20
2019-01-04T03:07:04.329Z,4.10
2019-01-04T03:13:08.543Z,4.10
2019-01-04T03:19:12.733Z,4.10
2019-01-04T03:25:16.986Z,4.10
2019-01-04T03:31:21.189Z,4.10
2019-01-04T03:37:25.446Z,4.00
2019-01-04T03:43:29.652Z,4.00
2019-01-04T03:49:33.868Z,4.10
2019-01-04T03:55:38.156Z,4.10
2019-01-04T04:01:42.426Z,4.00
2019-01-04T04:07:46.658Z,4.10
2019-01-04T04:13:50.853Z,4.10
2019-01-04T04:19:55.355Z,4.00
2019-01-04T04:25:59.552Z,4.10
2019-01-04T04:32:03.840Z,4.00
2019-01-04T04:38:08.114Z,4.00
2019-01-04T04:44:12.355Z,4.00
2019-01-04T04:50:16.661Z,3.90
2019-01-04T04:56:20.928Z,3.90
2019-01-04T05:02:25.135Z,3.90
2019-01-04T05:08:29.619Z,4.00
2019-01-04T05:14:33.803Z,4.00
2019-01-04T05:20:38.043Z,4.00
2019-01-04T05:26:42.232Z,3.90
2019-01-04T05:32:49.533Z,3.90
2019-01-04T05:38:53.715Z,4.00
2019-01-04T05:44:58.161Z,4.00
2019-01-04T05:51:02.354Z,4.20
2019-01-04T05:57:06.611Z,4.10
2019-01-04T06:03:10.807Z,4.10
2019-01-04T06:09:15.237Z,4.10
2019-01-04T06:15:19.420Z,4.10
2019-01-04T06:21:23.759Z,3.90
2019-01-04T06:27:27.943Z,3.70
2019-01-04T06:33:32.282Z,3.50
2019-01-04T06:39:36.476Z,3.50
2019-01-04T06:45:40.875Z,3.50
2019-01-04T06:51:45.084Z,3.40
2019-01-04T06:57:49.396Z,3.40
2019-01-04T07:03:53.630Z,3.40
2019-01-04T07:10:00.943Z,3.30
2019-01-04T07:16:05.198Z,3.30
2019-01-04T07:22:09.542Z,3.30
2019-01-04T07:28:13.800Z,3.20
2019-01-04T07:34:18.244Z,3.30
2019-01-04T07:40:22.476Z,3.30
2019-01-04T07:46:26.642Z,3.30
2019-01-04T07:52:30.839Z,3.40
2019-01-04T07:58:35.151Z,3.40
2019-01-04T08:04:39.308Z,3.40
2019-01-04T08:10:43.655Z,3.50
2019-01-04T08:16:47.870Z,3.50
2019-01-04T08:22:52.247Z,3.40
2019-01-04T08:28:56.443Z,3.50
2019-01-04T08:35:00.850Z,3.40
2019-01-04T08:41:05.023Z,3.40
2019-01-04T08:47:09.315Z,3.40
2019-01-04T08:53:13.515Z,3.40
2019-01-04T08:59:17.941Z,3.40
2019-01-04T09:05:22.173Z,3.50
2019-01-04T09:11:26.392Z,3.50
2019-01-04T09:17:30.579Z,3.60
2019-01-04T09:23:34.963Z,3.70
2019-01-04T09:29:39.143Z,3.70
2019-01-04T09:35:43.594Z,3.80
2019-01-04T09:42:13.768Z,3.80
2019-01-04T09:48:17.957Z,3.90
2019-01-04T09:54:22.184Z,3.90
2019-01-04T10:00:26.564Z,4.00
2019-01-04T10:06:30.802Z,4.00
2019-01-04T10:12:34.992Z,4.00
2019-01-04T10:18:39.295Z,4.10
2019-01-04T10:24:43.490Z,4.10
2019-01-04T10:30:47.911Z,4.10
2019-01-04T10:36:52.160Z,4.20
2019-01-04T10:42:56.434Z,4.20
2019-01-04T10:49:00.612Z,4.30
2019-01-04T10:55:05.290Z,4.40
2019-01-04T11:01:09.480Z,4.40
2019-01-04T11:07:13.662Z,4.40
2019-01-04T11:13:17.953Z,4.50
2019-01-04T11:19:22.149Z,4.50
2019-01-04T11:26:12.192Z,4.50
2019-01-04T11:32:51.208Z,4.60
2019-01-04T11:39:35.444Z,4.70
2019-01-04T11:46:05.108Z,4.70
2019-01-04T11:52:39.159Z,4.70
2019-01-04T11:58:43.367Z,4.80
2019-01-04T12:04:47.559Z,4.60
2019-01-04T12:10:51.804Z,4.60
2019-01-04T12:16:56.029Z,4.60
2019-01-04T12:23:00.327Z,4.70
2019-01-04T12:29:04.540Z,4.60
2019-01-04T12:35:09.007Z,4.60
2019-01-04T12:41:13.180Z,4.60
2019-01-04T12:47:17.526Z,4.70
2019-01-04T12:53:21.761Z,5.00
2019-01-04T12:59:26.097Z,4.60
2019-01-04T13:05:30.290Z,4.50
2019-01-04T13:11:34.663Z,4.50
2019-01-04T13:17:38.825Z,4.30
2019-01-04T13:23:43.081Z,4.20
2019-01-04T13:29:47.266Z,4.50
2019-01-04T13:35:51.727Z,4.40
2019-01-04T13:41:55.923Z,4.30
2019-01-04T13:48:00.235Z,4.40
2019-01-04T13:54:04.726Z,4.30
2019-01-04T14:00:09.788Z,4.30
2019-01-04T14:06:13.985Z,4.30
2019-01-04T14:12:18.452Z,4.70
2019-01-04T14:18:22.640Z,4.30
2019-01-04T14:24:27.070Z,4.30
2019-01-04T14:30:32.064Z,4.30
2019-01-04T14:36:37.632Z,4.30
2019-01-04T14:42:41.842Z,4.30
2019-01-04T14:48:46.093Z,4.30
2019-01-04T14:54:50.272Z,4.30
2019-01-04T15:00:54.518Z,4.20
2019-01-04T15:06:58.742Z,4.20
2019-01-04T15:13:03.062Z,4.20
2019-01-04T15:19:07.259Z,4.20
2019-01-04T15:25:11.587Z,4.20
2019-01-04T15:31:15.758Z,4.20
2019-01-04T15:37:20.462Z,4.20
2019-01-04T15:43:24.657Z,4.20
2019-01-04T15:49:28.959Z,4.10
2019-01-04T15:55:33.133Z,4.20
2019-01-04T16:01:37.417Z,4.20
2019-01-04T16:07:41.625Z,4.20
2019-01-04T16:13:45.859Z,4.20
2019-01-04T16:19:50.027Z,4.10
2019-01-04T16:25:54.391Z,4.20
2019-01-04T16:31:58.595Z,4.20
2019-01-04T16:38:02.902Z,4.10
2019-01-04T16:44:07.332Z,4.20
2019-01-04T16:50:11.649Z,4.20
2019-01-04T16:56:15.962Z,4.20
2019-01-04T17:02:20.172Z,4.20
2019-01-04T17:08:24.379Z,4.10
2019-01-04T17:14:28.613Z,4.10
2019-01-04T17:20:32.875Z,4.10
2019-01-04T17:26:37.209Z,4.20
2019-01-04T17:32:41.403Z,4.20
2019-01-04T17:38:45.662Z,4.20
2019-01-04T17:44:49.830Z,4.20
2019-01-04T17:50:54.003Z,4.30
2019-01-04T17:56:58.256Z,4.30
2019-01-04T18:03:02.457Z,4.30
2019-01-04T18:09:08.145Z,4.40
2019-01-04T18:15:12.351Z,4.50
2019-01-04T18:21:16.542Z,4.50
2019-01-04T18:27:20.856Z,4.50
2019-01-04T18:33:25.101Z,4.50
2019-01-04T18:39:29.398Z,4.60
2019-01-04T18:45:33.697Z,4.50
2019-01-04T18:51:37.900Z,4.50
2019-01-04T18:57:42.074Z,4.50
2019-01-04T19:03:46.274Z,4.50
2019-01-04T19:09:50.461Z,4.60
2019-01-04T19:15:54.788Z,4.70
2019-01-04T19:21:59.008Z,4.70
2019-01-04T19:28:03.191Z,4.80
2019-01-04T19:34:07.528Z,4.80
2019-01-04T19:40:11.765Z,4.90
2019-01-04T19:46:16.026Z,4.80
2019-01-04T19:52:20.202Z,4.80
2019-01-04T19:58:24.606Z,4.90
2019-01-04T20:04:28.838Z,4.80
2019-01-04T20:11:29.653Z,4.80
2019-01-04T20:18:05.239Z,4.80
2019-01-04T20:24:24.013Z,4.80
2019-01-04T20:31:05.433Z,4.90
2019-01-04T20:37:27.057Z,4.90
2019-01-04T20:44:05.201Z,4.90
2019-01-04T20:50:27.076Z,4.90
2019-01-04T20:56:57.566Z,5.00
2019-01-04T21:03:35.963Z,5.10
2019-01-04T21:10:01.768Z,5.10
2019-01-04T21:16:25.016Z,5.20
2019-01-04T21:22:40.751Z,5.20
2019-01-04T21:29:10.834Z,5.20
2019-01-04T21:35:42.864Z,5.30
2019-01-04T21:42:04.744Z,5.30
2019-01-04T21:48:38.577Z,5.30
2019-01-04T21:55:00.576Z,5.30
2019-01-04T22:01:22.200Z,5.40
2019-01-04T22:07:48.662Z,5.40
2019-01-04T22:14:10.273Z,5.40
2019-01-04T22:20:37.730Z,5.40
2019-01-04T22:27:03.816Z,5.40
2019-01-04T22:33:25.471Z,5.40
2019-01-04T22:39:48.718Z,5.40
2019-01-04T22:46:11.942Z,5.40
2019-01-04T22:52:24.300Z,5.50
2019-01-04T22:58:47.517Z,5.40
2019-01-04T23:05:25.853Z,5.50
2019-01-04T23:11:50.603Z,5.50
2019-01-04T23:18:13.839Z,5.50
2019-01-04T23:24:42.873Z,5.50
2019-01-04T23:31:10.837Z,5.50
2019-01-04T23:37:37.187Z,5.60
2019-01-04T23:44:09.270Z,5.50
2019-01-04T23:50:31.204Z,5.50
2019-01-04T23:56:52.898Z,5.60
